createdAt,value
2017-12-29T00:00:06.698Z,70.71
2017-12-29T00:02:34.283Z,71.21
2017-12-29T00:05:01.922Z,71.60
2017-12-29T00:07:29.499Z,71.89
2017-12-29T00:09:57.319Z,71.83
2017-12-29T00:12:24.946Z,72.40
2017-12-29T00:14:52.521Z,72.35
2017-12-29T00:17:20.202Z,72.30
2017-12-29T00:19:48.068Z,72.28
2017-12-29T00:22:16.486Z,72.28
2017-12-29T00:24:44.116Z,72.45
2017-12-29T00:27:11.720Z,71.98
2017-12-29T00:29:39.340Z,71.93
2017-12-29T00:32:07.204Z,71.97
2017-12-29T00:34:34.788Z,71.90
2017-12-29T00:37:02.424Z,72.44
2017-12-29T00:39:30.008Z,72.27
2017-12-29T00:41:57.627Z,72.20
2017-12-29T00:44:25.202Z,72.27
2017-12-29T00:46:52.772Z,72.23
2017-12-29T00:49:20.650Z,72.32
2017-12-29T00:51:48.517Z,72.26
2017-12-29T00:54:16.147Z,72.29
2017-12-29T00:56:44.052Z,72.57
2017-12-29T00:59:11.640Z,72.35
2017-12-29T01:01:39.242Z,72.21
2017-12-29T01:04:06.813Z,72.40
2017-12-29T01:06:34.600Z,72.30
2017-12-29T01:09:02.168Z,72.10
2017-12-29T01:11:29.749Z,72.15
2017-12-29T01:13:57.361Z,71.96
2017-12-29T01:16:24.948Z,72.22
2017-12-29T01:18:52.605Z,72.53
2017-12-29T01:21:20.186Z,72.43
2017-12-29T01:23:48.030Z,72.44
2017-12-29T01:26:15.657Z,72.22
2017-12-29T01:28:43.254Z,72.28
2017-12-29T01:31:10.860Z,72.29
2017-12-29T01:33:38.439Z,72.71
2017-12-29T01:36:06.022Z,72.47
2017-12-29T01:38:33.905Z,72.52
2017-12-29T01:41:01.767Z,72.56
2017-12-29T01:43:29.387Z,72.54
2017-12-29T01:45:56.973Z,72.58
2017-12-29T01:50:58.491Z,72.35
2017-12-29T01:53:26.067Z,72.70
2017-12-29T01:55:54.822Z,72.72
2017-12-29T01:58:22.415Z,72.49
2017-12-29T02:00:50.000Z,72.83
2017-12-29T02:03:17.616Z,72.45
2017-12-29T02:05:45.280Z,72.42
2017-12-29T02:08:12.904Z,72.68
2017-12-29T02:10:40.491Z,72.56
2017-12-29T02:13:08.101Z,72.61
2017-12-29T02:15:35.705Z,72.94
2017-12-29T02:18:03.286Z,72.91
2017-12-29T02:20:31.240Z,73.08
2017-12-29T02:22:59.110Z,73.04
2017-12-29T02:25:26.737Z,72.96
2017-12-29T02:27:54.346Z,72.71
2017-12-29T02:30:21.928Z,72.50
2017-12-29T02:32:49.559Z,72.46
2017-12-29T02:35:17.437Z,72.39
2017-12-29T02:37:45.035Z,72.27
2017-12-29T02:40:12.653Z,72.13
2017-12-29T02:42:40.246Z,72.11
2017-12-29T02:45:08.479Z,72.31
2017-12-29T02:47:36.180Z,72.06
2017-12-29T02:50:03.818Z,72.34
2017-12-29T02:52:31.785Z,72.11
2017-12-29T02:54:59.647Z,72.27
2017-12-29T02:57:27.292Z,72.20
2017-12-29T02:59:54.879Z,72.17
2017-12-29T03:02:22.475Z,72.29
2017-12-29T03:04:50.125Z,72.31
2017-12-29T03:07:17.712Z,72.42
2017-12-29T03:09:45.340Z,72.42
2017-12-29T03:12:12.943Z,72.39
2017-12-29T03:14:40.550Z,72.48
2017-12-29T03:17:08.176Z,72.51
2017-12-29T03:19:35.781Z,72.65
2017-12-29T03:22:03.391Z,72.81
2017-12-29T03:24:30.986Z,72.62
2017-12-29T03:26:58.592Z,72.70
2017-12-29T03:29:26.226Z,72.53
2017-12-29T03:31:53.812Z,72.72
2017-12-29T03:34:21.431Z,72.56
2017-12-29T03:36:49.023Z,72.30
2017-12-29T03:39:16.648Z,72.61
2017-12-29T03:41:44.282Z,72.58
2017-12-29T03:44:11.866Z,72.52
2017-12-29T03:46:39.498Z,72.48
2017-12-29T03:49:07.096Z,72.60
2017-12-29T03:51:34.692Z,72.68
2017-12-29T03:54:02.332Z,72.94
2017-12-29T03:56:29.912Z,73.06
2017-12-29T03:58:57.528Z,72.99
2017-12-29T04:01:25.112Z,73.25
2017-12-29T04:03:52.686Z,73.45
2017-12-29T04:06:20.292Z,73.74
2017-12-29T04:08:47.876Z,73.95
2017-12-29T04:11:15.496Z,73.91
2017-12-29T04:13:43.065Z,73.85
2017-12-29T04:16:10.647Z,74.02
2017-12-29T04:18:38.257Z,73.86
2017-12-29T04:21:05.854Z,74.14
2017-12-29T04:23:33.500Z,74.47
2017-12-29T04:26:01.064Z,74.54
2017-12-29T04:28:28.652Z,74.86
2017-12-29T04:30:56.269Z,75.09
2017-12-29T04:33:23.846Z,74.81
2017-12-29T04:35:51.495Z,74.54
2017-12-29T04:38:19.363Z,75.10
2017-12-29T04:40:46.956Z,74.94
2017-12-29T04:43:14.564Z,74.67
2017-12-29T04:45:42.498Z,75.02
2017-12-29T04:48:10.121Z,75.06
2017-12-29T04:50:37.699Z,74.93
2017-12-29T04:53:05.307Z,74.76
2017-12-29T04:55:33.200Z,74.65
2017-12-29T04:58:00.797Z,74.99
2017-12-29T05:00:28.436Z,75.49
2017-12-29T05:02:56.291Z,75.57
2017-12-29T05:05:23.876Z,75.56
2017-12-29T05:07:51.818Z,75.41
2017-12-29T05:10:19.412Z,75.13
2017-12-29T05:12:47.032Z,75.22
2017-12-29T05:15:14.708Z,75.12
2017-12-29T05:17:42.336Z,75.18
2017-12-29T05:20:09.950Z,75.19
2017-12-29T05:22:37.538Z,75.32
2017-12-29T05:25:05.467Z,75.58
2017-12-29T05:27:33.047Z,75.78
2017-12-29T05:30:00.627Z,75.58
2017-12-29T05:32:28.237Z,75.78
2017-12-29T05:34:55.880Z,75.85
2017-12-29T05:37:23.541Z,75.72
2017-12-29T05:39:51.126Z,75.66
2017-12-29T05:42:18.803Z,75.97
2017-12-29T05:44:46.412Z,76.16
2017-12-29T05:47:14.328Z,76.00
2017-12-29T05:49:42.196Z,75.89
2017-12-29T05:52:09.779Z,75.87
2017-12-29T05:54:37.629Z,75.77
2017-12-29T05:57:05.331Z,75.58
2017-12-29T05:59:32.959Z,75.62
2017-12-29T06:02:00.919Z,75.96
2017-12-29T06:04:28.540Z,76.14
2017-12-29T06:06:56.118Z,75.98
2017-12-29T06:09:23.762Z,75.68
2017-12-29T06:11:51.359Z,75.45
2017-12-29T06:14:19.012Z,75.27
2017-12-29T06:16:46.639Z,75.24
2017-12-29T06:19:14.215Z,75.18
2017-12-29T06:21:41.795Z,75.13
2017-12-29T06:24:09.696Z,75.09
2017-12-29T06:26:37.351Z,74.98
2017-12-29T06:29:05.049Z,75.06
2017-12-29T06:31:32.647Z,74.82
2017-12-29T06:34:00.219Z,74.78
2017-12-29T06:36:27.863Z,74.50
2017-12-29T06:38:55.443Z,74.47
2017-12-29T06:41:23.067Z,74.33
2017-12-29T06:43:50.649Z,74.24
2017-12-29T06:46:18.251Z,74.23
2017-12-29T06:48:45.881Z,74.18
2017-12-29T06:51:13.785Z,74.00
2017-12-29T06:53:41.407Z,73.59
2017-12-29T06:56:08.987Z,73.60
2017-12-29T06:58:36.614Z,73.76
2017-12-29T07:01:04.244Z,73.76
2017-12-29T07:03:32.193Z,73.81
2017-12-29T07:05:59.857Z,73.63
2017-12-29T07:08:27.448Z,73.86
2017-12-29T07:10:55.027Z,73.63
2017-12-29T07:13:22.656Z,73.75
2017-12-29T07:15:50.261Z,73.83
2017-12-29T07:18:17.893Z,73.51
2017-12-29T07:20:45.481Z,73.62
2017-12-29T07:23:13.060Z,73.56
2017-12-29T07:25:41.007Z,73.73
2017-12-29T07:28:08.587Z,73.56
2017-12-29T07:30:36.232Z,73.49
2017-12-29T07:33:03.825Z,73.54
2017-12-29T07:35:31.539Z,73.75
2017-12-29T07:37:59.169Z,73.63
2017-12-29T07:40:26.763Z,73.87
2017-12-29T07:42:54.385Z,73.94
2017-12-29T07:45:22.014Z,73.79
2017-12-29T07:47:49.591Z,74.09
2017-12-29T07:50:17.195Z,73.83
2017-12-29T07:52:44.793Z,73.67
2017-12-29T07:55:13.911Z,73.67
2017-12-29T07:57:41.587Z,73.92
2017-12-29T08:00:09.183Z,73.83
2017-12-29T08:02:36.832Z,73.72
2017-12-29T08:05:04.420Z,73.74
2017-12-29T08:07:32.073Z,73.44
2017-12-29T08:09:59.659Z,73.60
2017-12-29T08:12:27.296Z,73.40
2017-12-29T08:14:54.893Z,73.48
2017-12-29T08:17:22.470Z,73.22
2017-12-29T08:19:50.129Z,73.17
2017-12-29T08:22:17.731Z,72.90
2017-12-29T08:24:45.320Z,73.23
2017-12-29T08:27:12.998Z,73.36
2017-12-29T08:29:40.573Z,73.32
2017-12-29T08:32:08.219Z,73.44
2017-12-29T08:34:35.883Z,73.12
2017-12-29T08:37:03.454Z,72.66
2017-12-29T08:39:31.078Z,72.79
2017-12-29T08:41:58.659Z,72.65
2017-12-29T08:44:26.347Z,72.33
2017-12-29T08:46:54.048Z,72.52
2017-12-29T08:49:21.626Z,72.53
2017-12-29T08:51:49.241Z,72.41
2017-12-29T08:54:16.867Z,72.30
2017-12-29T08:56:44.476Z,72.30
2017-12-29T08:59:12.069Z,72.53
2017-12-29T09:01:39.831Z,72.48
2017-12-29T09:04:07.801Z,72.36
2017-12-29T09:06:35.653Z,72.64
2017-12-29T09:09:03.328Z,73.13
2017-12-29T09:11:31.194Z,72.65
2017-12-29T09:13:58.773Z,72.89
2017-12-29T09:16:26.723Z,72.82
2017-12-29T09:18:54.303Z,72.59
2017-12-29T09:21:21.928Z,72.58
2017-12-29T09:23:49.503Z,72.47
2017-12-29T09:26:17.369Z,72.27
2017-12-29T09:28:44.975Z,72.20
2017-12-29T09:31:12.901Z,71.90
2017-12-29T09:33:40.512Z,71.79
2017-12-29T09:36:08.133Z,71.81
2017-12-29T09:38:35.999Z,71.83
2017-12-29T09:41:03.608Z,71.62
2017-12-29T09:43:31.241Z,71.65
2017-12-29T09:45:58.867Z,71.64
2017-12-29T09:48:26.448Z,71.66
2017-12-29T09:50:54.276Z,71.80
2017-12-29T09:53:21.983Z,71.78
2017-12-29T09:55:49.555Z,71.37
2017-12-29T09:58:17.192Z,71.25
2017-12-29T10:00:44.779Z,70.88
2017-12-29T10:03:12.380Z,70.76
2017-12-29T10:05:39.993Z,71.27
2017-12-29T10:08:07.856Z,71.00
2017-12-29T10:10:35.504Z,70.90
2017-12-29T10:13:03.383Z,70.65
2017-12-29T10:15:31.959Z,70.93
2017-12-29T10:17:59.833Z,71.17
2017-12-29T10:20:27.451Z,71.19
2017-12-29T10:22:57.203Z,71.11
2017-12-29T10:25:24.908Z,71.13
2017-12-29T10:27:52.584Z,70.78
2017-12-29T10:30:20.192Z,70.43
2017-12-29T10:32:47.783Z,70.31
2017-12-29T10:35:15.727Z,70.19
2017-12-29T10:37:43.326Z,69.84
2017-12-29T10:40:10.908Z,69.74
2017-12-29T10:42:39.020Z,69.57
2017-12-29T10:45:06.609Z,69.36
2017-12-29T10:47:34.546Z,69.58
2017-12-29T10:50:02.195Z,69.65
2017-12-29T10:52:29.909Z,69.41
2017-12-29T10:54:57.868Z,69.17
2017-12-29T10:57:25.485Z,69.17
2017-12-29T10:59:53.127Z,68.73
2017-12-29T11:02:20.743Z,68.86
2017-12-29T11:04:48.376Z,68.49
2017-12-29T11:07:16.040Z,68.31
2017-12-29T11:09:43.634Z,67.69
2017-12-29T11:12:11.273Z,67.75
2017-12-29T11:14:38.883Z,67.01
2017-12-29T11:17:06.817Z,66.99
2017-12-29T11:19:34.784Z,66.85
2017-12-29T11:22:02.411Z,66.17
2017-12-29T11:24:30.076Z,66.32
2017-12-29T11:26:57.979Z,65.65
2017-12-29T11:29:25.851Z,65.08
2017-12-29T11:31:53.466Z,64.65
2017-12-29T11:34:21.609Z,64.62
2017-12-29T11:36:49.250Z,64.61
2017-12-29T11:39:17.115Z,63.76
2017-12-29T11:41:44.729Z,64.16
2017-12-29T11:44:12.648Z,65.10
2017-12-29T11:46:40.513Z,65.12
2017-12-29T11:49:08.166Z,66.01
2017-12-29T11:51:35.776Z,65.99
2017-12-29T11:54:03.372Z,66.02
2017-12-29T11:56:31.014Z,65.91
2017-12-29T11:58:58.803Z,65.40
2017-12-29T12:01:26.544Z,65.17
2017-12-29T12:03:54.208Z,65.34
2017-12-29T12:06:21.860Z,65.11
2017-12-29T12:08:49.517Z,64.94
2017-12-29T12:11:17.151Z,64.69
2017-12-29T12:13:44.847Z,64.41
2017-12-29T12:16:12.800Z,64.33
2017-12-29T12:18:40.664Z,64.19
2017-12-29T12:21:08.420Z,64.56
2017-12-29T12:23:36.147Z,64.36
2017-12-29T12:26:03.779Z,65.41
2017-12-29T12:28:31.711Z,65.26
2017-12-29T12:30:59.296Z,65.62
2017-12-29T12:33:26.931Z,65.95
2017-12-29T12:35:54.510Z,66.23
2017-12-29T12:38:22.141Z,66.33
2017-12-29T12:40:49.739Z,66.24
2017-12-29T12:43:17.319Z,65.82
2017-12-29T12:45:44.954Z,65.85
2017-12-29T12:48:12.554Z,65.67
2017-12-29T12:50:40.188Z,66.09
2017-12-29T12:53:07.786Z,65.80
2017-12-29T12:55:35.395Z,66.14
2017-12-29T12:58:03.016Z,66.20
2017-12-29T13:00:30.617Z,66.48
2017-12-29T13:02:58.235Z,66.96
2017-12-29T13:05:25.818Z,66.73
2017-12-29T13:07:53.434Z,66.56
2017-12-29T13:10:21.058Z,66.43
2017-12-29T13:12:48.929Z,66.33
2017-12-29T13:15:16.899Z,66.72
2017-12-29T13:17:44.474Z,66.77
2017-12-29T13:20:12.097Z,66.66
2017-12-29T13:22:40.103Z,66.62
2017-12-29T13:25:07.693Z,66.60
2017-12-29T13:27:35.627Z,66.51
2017-12-29T13:30:03.493Z,66.68
2017-12-29T13:32:31.075Z,65.96
2017-12-29T13:34:59.019Z,65.90
2017-12-29T13:37:26.892Z,66.01
2017-12-29T13:39:54.471Z,65.79
2017-12-29T13:42:22.096Z,65.61
2017-12-29T13:44:49.671Z,65.88
2017-12-29T13:47:17.253Z,64.99
2017-12-29T13:49:44.868Z,65.14
2017-12-29T13:54:46.372Z,64.82
2017-12-29T13:57:14.231Z,65.19
2017-12-29T13:59:42.102Z,65.16
2017-12-29T14:02:09.733Z,65.06
2017-12-29T14:04:37.634Z,65.12
2017-12-29T14:07:05.220Z,65.02
2017-12-29T14:09:32.844Z,64.95
2017-12-29T14:12:00.424Z,65.06
2017-12-29T14:14:28.041Z,64.89
2017-12-29T14:16:55.951Z,65.15
2017-12-29T14:19:23.564Z,65.42
2017-12-29T14:21:51.254Z,65.58
2017-12-29T14:24:18.876Z,65.22
2017-12-29T14:26:46.531Z,65.33
2017-12-29T14:29:14.112Z,65.22
2017-12-29T14:31:41.683Z,65.18
2017-12-29T14:34:09.336Z,65.22
2017-12-29T14:36:36.929Z,65.43
2017-12-29T14:39:04.572Z,65.11
2017-12-29T14:41:32.193Z,65.14
2017-12-29T14:43:59.776Z,65.13
2017-12-29T14:46:27.388Z,65.25
2017-12-29T14:48:55.004Z,65.30
2017-12-29T14:51:22.625Z,65.47
2017-12-29T14:53:50.268Z,65.70
2017-12-29T14:56:18.150Z,65.87
2017-12-29T14:58:45.769Z,65.87
2017-12-29T15:01:13.384Z,65.83
2017-12-29T15:03:41.000Z,66.26
2017-12-29T15:06:09.302Z,66.08
2017-12-29T15:08:37.048Z,66.59
2017-12-29T15:11:04.951Z,67.05
2017-12-29T15:13:32.551Z,67.67
2017-12-29T15:16:00.215Z,67.92
2017-12-29T15:18:27.808Z,68.55
2017-12-29T15:20:55.393Z,68.96
2017-12-29T15:23:23.013Z,69.02
2017-12-29T15:25:50.616Z,69.32
2017-12-29T15:28:18.236Z,69.36
2017-12-29T15:30:47.891Z,69.71
2017-12-29T15:33:15.471Z,69.68
2017-12-29T15:35:43.083Z,70.18
2017-12-29T15:38:11.419Z,70.19
2017-12-29T15:40:39.964Z,70.28
2017-12-29T15:43:07.784Z,70.63
2017-12-29T15:45:35.367Z,70.80
2017-12-29T15:48:03.056Z,70.97
2017-12-29T15:50:31.658Z,71.19
2017-12-29T15:52:59.271Z,71.44
2017-12-29T15:55:26.855Z,70.94
2017-12-29T15:57:54.542Z,71.14
2017-12-29T16:00:22.732Z,71.03
2017-12-29T16:02:50.942Z,71.23
2017-12-29T16:05:18.759Z,70.78
2017-12-29T16:07:46.624Z,70.70
2017-12-29T16:10:14.262Z,70.69
2017-12-29T16:12:41.851Z,70.76
2017-12-29T16:15:09.906Z,70.85
2017-12-29T16:17:38.220Z,70.83
2017-12-29T16:20:05.850Z,71.05
2017-12-29T16:22:33.512Z,70.89
2017-12-29T16:25:01.177Z,71.34
2017-12-29T16:27:28.779Z,70.95
2017-12-29T16:29:56.395Z,70.86
2017-12-29T16:32:23.974Z,70.78
2017-12-29T16:34:51.651Z,70.73
2017-12-29T16:37:19.275Z,70.71
2017-12-29T16:39:46.856Z,70.56
2017-12-29T16:42:14.474Z,70.51
2017-12-29T16:44:42.642Z,70.01
2017-12-29T16:47:10.256Z,69.79
2017-12-29T16:49:38.564Z,69.88
2017-12-29T16:52:06.149Z,69.90
2017-12-29T16:54:34.017Z,69.75
2017-12-29T16:57:01.593Z,69.83
2017-12-29T16:59:29.501Z,69.74
2017-12-29T17:01:57.365Z,69.90
2017-12-29T17:04:25.497Z,69.71
2017-12-29T17:06:53.139Z,69.62
2017-12-29T17:09:20.762Z,69.65
2017-12-29T17:11:48.417Z,69.80
2017-12-29T17:14:16.021Z,69.50
2017-12-29T17:16:43.647Z,69.81
2017-12-29T17:19:11.320Z,69.93
2017-12-29T17:21:39.175Z,70.14
2017-12-29T17:24:06.807Z,69.98
2017-12-29T17:26:34.656Z,69.72
2017-12-29T17:29:02.256Z,69.72
2017-12-29T17:31:29.881Z,69.83
2017-12-29T17:33:57.486Z,70.06
2017-12-29T17:36:25.185Z,70.35
2017-12-29T17:38:53.135Z,70.25
2017-12-29T17:41:20.779Z,70.18
2017-12-29T17:43:48.376Z,70.13
2017-12-29T17:46:16.320Z,69.90
2017-12-29T17:48:44.292Z,69.81
2017-12-29T17:51:12.175Z,70.07
2017-12-29T17:53:39.767Z,69.94
2017-12-29T17:56:07.379Z,70.17
2017-12-29T17:58:34.977Z,69.82
2017-12-29T18:01:02.597Z,69.85
2017-12-29T18:03:30.179Z,69.96
2017-12-29T18:05:57.775Z,70.33
2017-12-29T18:08:25.420Z,70.36
2017-12-29T18:10:53.882Z,70.38
2017-12-29T18:13:21.511Z,70.24
2017-12-29T18:15:49.123Z,70.21
2017-12-29T18:18:16.967Z,70.54
2017-12-29T18:20:44.590Z,71.18
2017-12-29T18:23:12.293Z,71.52
2017-12-29T18:25:39.914Z,71.07
2017-12-29T18:28:07.536Z,70.82
2017-12-29T18:30:35.132Z,70.56
2017-12-29T18:33:02.894Z,70.85
2017-12-29T18:35:30.521Z,71.10
2017-12-29T18:37:58.180Z,71.11
2017-12-29T18:40:25.786Z,71.25
2017-12-29T18:42:53.406Z,71.28
2017-12-29T18:45:21.069Z,71.46
2017-12-29T18:47:48.652Z,71.24
2017-12-29T18:50:16.284Z,71.29
2017-12-29T18:52:43.879Z,71.52
2017-12-29T18:55:11.847Z,71.45
2017-12-29T18:57:39.572Z,71.43
2017-12-29T19:00:07.354Z,71.57
2017-12-29T19:02:35.482Z,71.86
2017-12-29T19:05:03.180Z,72.03
2017-12-29T19:07:30.845Z,72.23
2017-12-29T19:09:58.505Z,72.46
2017-12-29T19:12:26.477Z,72.48
2017-12-29T19:14:54.126Z,72.48
2017-12-29T19:17:21.741Z,72.05
2017-12-29T19:19:49.354Z,72.08
2017-12-29T19:22:16.987Z,72.08
2017-12-29T19:24:44.891Z,71.90
2017-12-29T19:27:12.540Z,71.79
2017-12-29T19:29:40.135Z,71.72
2017-12-29T19:32:07.808Z,71.45
2017-12-29T19:34:35.453Z,71.78
2017-12-29T19:37:03.072Z,71.65
2017-12-29T19:39:30.734Z,71.55
2017-12-29T19:41:58.336Z,71.53
2017-12-29T19:44:25.965Z,71.49
2017-12-29T19:46:53.638Z,71.53
2017-12-29T19:49:21.240Z,71.67
2017-12-29T19:51:48.952Z,71.68
2017-12-29T19:54:16.584Z,71.88
2017-12-29T19:56:44.172Z,71.86
2017-12-29T19:59:11.842Z,71.89
2017-12-29T20:01:39.445Z,71.66
2017-12-29T20:04:07.093Z,71.63
2017-12-29T20:06:34.731Z,71.98
2017-12-29T20:09:02.618Z,71.62
2017-12-29T20:11:30.273Z,71.96
2017-12-29T20:13:57.876Z,72.18
2017-12-29T20:16:25.514Z,72.25
2017-12-29T20:18:53.148Z,72.31
2017-12-29T20:21:20.756Z,72.40
2017-12-29T20:23:48.396Z,72.33
2017-12-29T20:26:16.012Z,72.04
2017-12-29T20:28:43.673Z,71.90
2017-12-29T20:31:11.304Z,71.94
2017-12-29T20:33:38.928Z,71.61
2017-12-29T20:36:06.562Z,71.44
2017-12-29T20:38:34.186Z,71.13
2017-12-29T20:41:01.892Z,71.01
2017-12-29T20:43:29.503Z,71.40
2017-12-29T20:45:57.100Z,71.08
2017-12-29T20:48:24.746Z,71.42
2017-12-29T20:50:52.390Z,71.46
2017-12-29T20:53:20.014Z,71.52
2017-12-29T20:55:47.631Z,71.20
2017-12-29T20:58:16.251Z,71.46
2017-12-29T21:00:46.534Z,71.20
2017-12-29T21:03:14.131Z,71.17
2017-12-29T21:05:41.858Z,71.09
2017-12-29T21:08:09.563Z,71.14
2017-12-29T21:10:37.439Z,71.15
2017-12-29T21:13:05.065Z,71.23
2017-12-29T21:15:33.956Z,71.41
2017-12-29T21:18:02.010Z,71.08
2017-12-29T21:20:29.727Z,71.35
2017-12-29T21:22:57.386Z,71.61
2017-12-29T21:25:25.013Z,71.58
2017-12-29T21:27:52.603Z,71.67
2017-12-29T21:30:20.261Z,71.79
2017-12-29T21:32:47.860Z,71.70
2017-12-29T21:35:15.431Z,71.81
2017-12-29T21:37:43.052Z,72.04
2017-12-29T21:40:10.651Z,71.87
2017-12-29T21:42:38.303Z,72.08
2017-12-29T21:45:06.184Z,71.91
2017-12-29T21:47:33.860Z,72.40
2017-12-29T21:50:01.471Z,72.38
2017-12-29T21:52:29.089Z,72.28
2017-12-29T21:54:56.727Z,72.49
2017-12-29T21:57:24.356Z,72.48
2017-12-29T21:59:51.973Z,72.81
2017-12-29T22:02:19.578Z,72.80
2017-12-29T22:04:47.176Z,72.42
2017-12-29T22:07:14.819Z,72.56
2017-12-29T22:09:42.620Z,72.36
2017-12-29T22:12:10.209Z,72.74
2017-12-29T22:14:37.843Z,72.47
2017-12-29T22:17:05.497Z,72.45
2017-12-29T22:19:33.487Z,72.56
2017-12-29T22:22:01.648Z,72.62
2017-12-29T22:24:29.243Z,72.57
2017-12-29T22:26:56.987Z,72.56
2017-12-29T22:29:24.702Z,72.34
2017-12-29T22:31:52.442Z,72.33
2017-12-29T22:34:20.427Z,72.19
2017-12-29T22:36:48.366Z,72.44
2017-12-29T22:39:15.972Z,72.49
2017-12-29T22:41:43.573Z,72.42
2017-12-29T22:44:11.219Z,72.52
2017-12-29T22:46:38.809Z,72.42
2017-12-29T22:49:06.414Z,72.27
2017-12-29T22:51:34.075Z,72.42
2017-12-29T22:54:01.653Z,72.14
2017-12-29T22:56:29.548Z,71.96
2017-12-29T22:58:57.405Z,71.84
2017-12-29T23:01:25.133Z,72.01
2017-12-29T23:03:52.838Z,71.93
2017-12-29T23:06:20.481Z,71.70
2017-12-29T23:08:48.123Z,71.69
2017-12-29T23:11:15.723Z,71.59
2017-12-29T23:13:43.429Z,71.47
2017-12-29T23:16:11.040Z,71.52
2017-12-29T23:18:38.657Z,71.93
2017-12-29T23:21:06.289Z,72.07
2017-12-29T23:23:34.019Z,71.98
2017-12-29T23:26:01.646Z,72.13
2017-12-29T23:28:29.276Z,71.93
2017-12-29T23:30:56.869Z,72.13
2017-12-29T23:33:24.522Z,72.20
2017-12-29T23:35:52.134Z,72.14
2017-12-29T23:38:20.023Z,72.11
2017-12-29T23:40:47.681Z,72.25
2017-12-29T23:43:15.370Z,72.26
2017-12-29T23:45:43.428Z,72.34
2017-12-29T23:48:11.039Z,72.30
2017-12-29T23:50:39.065Z,71.95
2017-12-29T23:53:06.726Z,71.98
2017-12-29T23:55:34.298Z,72.32
2017-12-29T23:58:02.368Z,72.62
